This is the latest recevied weather packets stored in our database for station/object KG2V. If no packets are shown the sender has not sent any weather packets the latest 10 day(s).
| Time | Temp. | Humidity | Pressure | Rain* | Wind** | Luminosity | Snow |
|---|---|---|---|---|---|---|---|
| 1777342571 | 16.67° C | 46% | 1013.8 hPa | 0 mm | - | 0 W/m² | - |
| 1777342268 | 16.67° C | 45% | 1013.6 hPa | 0 mm | - | 0 W/m² | - |
| 1777341965 | 16.11° C | 46% | 1013.6 hPa | 0 mm | - | 0 W/m² | - |
| 1777341662 | 16.11° C | 47% | 1013.9 hPa | 0 mm | - | 0 W/m² | - |
| 1777341357 | 16.67° C | 46% | 1014 hPa | 0 mm | - | 0 W/m² | - |
| 1777341054 | 16.67° C | 47% | 1014 hPa | 0 mm | - | 0 W/m² | - |
| 1777340751 | 16.67° C | 47% | 1014 hPa | 0 mm | - | 0 W/m² | - |
| 1777340147 | 16.67° C | 48% | 1014 hPa | 0 mm | - | 0 W/m² | - |
| 1777339844 | 17.22° C | 46% | 1014 hPa | 0 mm | - | 0 W/m² | - |
| 1777339542 | 17.22° C | 44% | 1014.2 hPa | 0 mm | - | 0 W/m² | - |
| 1777339238 | 17.22° C | 44% | 1014.3 hPa | 0 mm | - | 0 W/m² | - |
| 1777338937 | 17.22° C | 44% | 1014.1 hPa | 0 mm | - | 0 W/m² | - |
| 1777338633 | 17.22° C | 44% | 1014.3 hPa | 0 mm | - | 0 W/m² | - |
| 1777338331 | 17.22° C | 45% | 1014.1 hPa | 0 mm | - | 0 W/m² | - |
| 1777337117 | 17.78° C | 46% | 1014.4 hPa | 0 mm | - | 0 W/m² | - |
| 1777336212 | 17.22° C | 48% | 1014.2 hPa | 0 mm | - | 0 W/m² | - |
| 1777335909 | 16.67° C | 48% | 1014.4 hPa | 0 mm | - | 0 W/m² | - |
| 1777334395 | 18.33° C | 46% | 1014.5 hPa | 0 mm | - | 4 W/m² | - |
| 1777333780 | 18.89° C | 44% | 1014.4 hPa | 0 mm | - | 7 W/m² | - |
| 1777313494 | 22.78° C | 44% | 1017.6 hPa | 0 mm | - | 663 W/m² | - |
| 1777313191 | 22.78° C | 37% | 1017.7 hPa | 0 mm | - | 633 W/m² | - |
| 1777312887 | 22.22° C | 41% | 1017.8 hPa | 0 mm | - | 674 W/m² | - |
| 1777312584 | 21.67° C | 44% | 1017.8 hPa | 0 mm | - | 678 W/m² | - |
| 1777311978 | 22.22° C | 37% | 1018 hPa | 0 mm | - | 684 W/m² | - |
| 1777311372 | 20.56° C | 37% | 1018 hPa | 0 mm | - | 691 W/m² | - |
* Rain latest hour (hover to see other rain measurements)
** Current wind speed in m/s (hover to see current wind gust speed)